sensor_id;sensor_type;location;lat;lon;timestamp;P1;durP1;ratioP1;P2;durP2;ratioP2
62574;SDS011;53112;45.602;11.904;2022-11-15T00:00:32;17.88;;;11.73;;
62574;SDS011;53112;45.602;11.904;2022-11-15T00:02:59;16.38;;;10.57;;
62574;SDS011;53112;45.602;11.904;2022-11-15T00:05:25;17.17;;;11.55;;
62574;SDS011;53112;45.602;11.904;2022-11-15T00:07:51;19.42;;;12.20;;
62574;SDS011;53112;45.602;11.904;2022-11-15T00:10:17;20.08;;;12.80;;
62574;SDS011;53112;45.602;11.904;2022-11-15T00:12:43;18.75;;;12.57;;
62574;SDS011;53112;45.602;11.904;2022-11-15T00:15:09;17.02;;;11.75;;
62574;SDS011;53112;45.602;11.904;2022-11-15T00:17:35;17.38;;;11.45;;
62574;SDS011;53112;45.602;11.904;2022-11-15T00:20:00;18.42;;;12.25;;
62574;SDS011;53112;45.602;11.904;2022-11-15T00:22:31;20.45;;;12.88;;
62574;SDS011;53112;45.602;11.904;2022-11-15T00:24:58;20.42;;;13.18;;
62574;SDS011;53112;45.602;11.904;2022-11-15T00:27:24;21.85;;;12.75;;
62574;SDS011;53112;45.602;11.904;2022-11-15T00:29:50;17.67;;;11.77;;
62574;SDS011;53112;45.602;11.904;2022-11-15T00:32:16;15.32;;;10.70;;
62574;SDS011;53112;45.602;11.904;2022-11-15T00:34:42;17.80;;;12.07;;
62574;SDS011;53112;45.602;11.904;2022-11-15T00:37:08;20.13;;;12.93;;
62574;SDS011;53112;45.602;11.904;2022-11-15T00:39:34;18.45;;;12.30;;
62574;SDS011;53112;45.602;11.904;2022-11-15T00:42:00;21.38;;;13.43;;
62574;SDS011;53112;45.602;11.904;2022-11-15T00:44:26;20.98;;;12.80;;
62574;SDS011;53112;45.602;11.904;2022-11-15T00:46:52;21.25;;;12.95;;
62574;SDS011;53112;45.602;11.904;2022-11-15T00:49:18;21.60;;;13.98;;
62574;SDS011;53112;45.602;11.904;2022-11-15T00:51:44;23.02;;;14.07;;
62574;SDS011;53112;45.602;11.904;2022-11-15T00:54:10;20.67;;;14.00;;
62574;SDS011;53112;45.602;11.904;2022-11-15T00:56:36;18.42;;;12.55;;
62574;SDS011;53112;45.602;11.904;2022-11-15T00:59:02;15.45;;;11.15;;
62574;SDS011;53112;45.602;11.904;2022-11-15T01:01:28;20.15;;;13.10;;
62574;SDS011;53112;45.602;11.904;2022-11-15T01:03:54;17.20;;;11.43;;
62574;SDS011;53112;45.602;11.904;2022-11-15T01:06:19;17.95;;;11.13;;
62574;SDS011;53112;45.602;11.904;2022-11-15T01:08:45;17.73;;;11.45;;
62574;SDS011;53112;45.602;11.904;2022-11-15T01:11:11;16.88;;;10.90;;
62574;SDS011;53112;45.602;11.904;2022-11-15T01:13:38;14.77;;;9.95;;
62574;SDS011;53112;45.602;11.904;2022-11-15T01:18:41;18.70;;;11.15;;
62574;SDS011;53112;45.602;11.904;2022-11-15T01:21:09;20.50;;;13.70;;
62574;SDS011;53112;45.602;11.904;2022-11-15T01:23:37;23.95;;;13.95;;
62574;SDS011;53112;45.602;11.904;2022-11-15T01:26:04;18.98;;;11.98;;
62574;SDS011;53112;45.602;11.904;2022-11-15T01:28:32;21.60;;;14.60;;
62574;SDS011;53112;45.602;11.904;2022-11-15T01:31:03;21.20;;;13.55;;
62574;SDS011;53112;45.602;11.904;2022-11-15T01:33:33;22.75;;;15.18;;
62574;SDS011;53112;45.602;11.904;2022-11-15T01:36:04;25.83;;;15.23;;
62574;SDS011;53112;45.602;11.904;2022-11-15T01:38:32;25.35;;;15.70;;
62574;SDS011;53112;45.602;11.904;2022-11-15T01:40:58;23.10;;;13.80;;
62574;SDS011;53112;45.602;11.904;2022-11-15T01:43:25;20.90;;;13.90;;
62574;SDS011;53112;45.602;11.904;2022-11-15T01:46:00;17.77;;;12.00;;
62574;SDS011;53112;45.602;11.904;2022-11-15T01:48:34;22.80;;;14.18;;
62574;SDS011;53112;45.602;11.904;2022-11-15T01:51:02;23.27;;;14.40;;
62574;SDS011;53112;45.602;11.904;2022-11-15T01:53:32;23.02;;;14.43;;
62574;SDS011;53112;45.602;11.904;2022-11-15T01:56:02;25.63;;;16.45;;
62574;SDS011;53112;45.602;11.904;2022-11-15T01:58:31;32.03;;;18.38;;
62574;SDS011;53112;45.602;11.904;2022-11-15T02:00:58;28.25;;;17.20;;
62574;SDS011;53112;45.602;11.904;2022-11-15T02:03:26;26.98;;;16.63;;
62574;SDS011;53112;45.602;11.904;2022-11-15T02:05:58;32.60;;;19.42;;
62574;SDS011;53112;45.602;11.904;2022-11-15T02:08:25;33.70;;;19.92;;
62574;SDS011;53112;45.602;11.904;2022-11-15T02:10:51;31.25;;;19.00;;
62574;SDS011;53112;45.602;11.904;2022-11-15T02:13:17;31.50;;;19.08;;
62574;SDS011;53112;45.602;11.904;2022-11-15T02:15:56;31.02;;;19.25;;
62574;SDS011;53112;45.602;11.904;2022-11-15T02:18:37;29.05;;;18.20;;
62574;SDS011;53112;45.602;11.904;2022-11-15T02:32:45;30.10;;;17.63;;
62574;SDS011;53112;45.602;11.904;2022-11-15T02:43:25;26.73;;;15.73;;
62574;SDS011;53112;45.602;11.904;2022-11-15T02:49:38;23.75;;;14.68;;
62574;SDS011;53112;45.602;11.904;2022-11-15T02:52:08;22.60;;;13.95;;
62574;SDS011;53112;45.602;11.904;2022-11-15T02:54:34;20.98;;;12.95;;
62574;SDS011;53112;45.602;11.904;2022-11-15T02:57:01;17.20;;;11.35;;
62574;SDS011;53112;45.602;11.904;2022-11-15T03:05:29;12.77;;;8.57;;
62574;SDS011;53112;45.602;11.904;2022-11-15T03:13:21;16.10;;;10.57;;
62574;SDS011;53112;45.602;11.904;2022-11-15T03:16:13;18.58;;;10.88;;
62574;SDS011;53112;45.602;11.904;2022-11-15T03:18:43;16.50;;;11.00;;
62574;SDS011;53112;45.602;11.904;2022-11-15T03:21:18;18.58;;;12.23;;
62574;SDS011;53112;45.602;11.904;2022-11-15T03:23:47;16.45;;;11.20;;
62574;SDS011;53112;45.602;11.904;2022-11-15T03:26:16;20.48;;;12.80;;
62574;SDS011;53112;45.602;11.904;2022-11-15T03:28:58;19.00;;;12.45;;
62574;SDS011;53112;45.602;11.904;2022-11-15T03:31:33;20.08;;;12.27;;
62574;SDS011;53112;45.602;11.904;2022-11-15T03:34:19;19.95;;;12.65;;
62574;SDS011;53112;45.602;11.904;2022-11-15T03:36:57;22.55;;;13.25;;
62574;SDS011;53112;45.602;11.904;2022-11-15T03:39:23;20.25;;;13.30;;
62574;SDS011;53112;45.602;11.904;2022-11-15T03:44:45;19.23;;;11.35;;
62574;SDS011;53112;45.602;11.904;2022-11-15T03:47:38;18.58;;;12.05;;
62574;SDS011;53112;45.602;11.904;2022-11-15T03:50:13;16.58;;;11.40;;
62574;SDS011;53112;45.602;11.904;2022-11-15T03:52:41;17.73;;;10.77;;
62574;SDS011;53112;45.602;11.904;2022-11-15T03:55:11;23.10;;;13.90;;
62574;SDS011;53112;45.602;11.904;2022-11-15T03:57:40;22.85;;;13.13;;
62574;SDS011;53112;45.602;11.904;2022-11-15T04:00:07;23.45;;;14.02;;
62574;SDS011;53112;45.602;11.904;2022-11-15T04:02:33;20.45;;;12.95;;
62574;SDS011;53112;45.602;11.904;2022-11-15T04:04:59;24.00;;;14.15;;
62574;SDS011;53112;45.602;11.904;2022-11-15T04:07:25;22.27;;;13.20;;
62574;SDS011;53112;45.602;11.904;2022-11-15T04:09:51;20.75;;;12.45;;
62574;SDS011;53112;45.602;11.904;2022-11-15T04:12:37;25.73;;;14.27;;
62574;SDS011;53112;45.602;11.904;2022-11-15T04:15:10;19.77;;;13.15;;
62574;SDS011;53112;45.602;11.904;2022-11-15T04:20:14;21.98;;;13.75;;
62574;SDS011;53112;45.602;11.904;2022-11-15T04:23:10;22.67;;;13.65;;
62574;SDS011;53112;45.602;11.904;2022-11-15T04:25:57;22.00;;;14.05;;
62574;SDS011;53112;45.602;11.904;2022-11-15T04:28:25;20.52;;;14.27;;
62574;SDS011;53112;45.602;11.904;2022-11-15T04:30:51;22.60;;;15.05;;
62574;SDS011;53112;45.602;11.904;2022-11-15T04:33:17;23.38;;;14.82;;
62574;SDS011;53112;45.602;11.904;2022-11-15T04:35:43;21.20;;;13.68;;
62574;SDS011;53112;45.602;11.904;2022-11-15T04:38:29;22.65;;;14.57;;
62574;SDS011;53112;45.602;11.904;2022-11-15T04:40:55;24.02;;;15.15;;
62574;SDS011;53112;45.602;11.904;2022-11-15T04:43:21;23.15;;;14.32;;
62574;SDS011;53112;45.602;11.904;2022-11-15T04:45:47;22.02;;;14.82;;
62574;SDS011;53112;45.602;11.904;2022-11-15T04:48:13;24.13;;;16.02;;
62574;SDS011;53112;45.602;11.904;2022-11-15T04:50:39;24.73;;;15.38;;
62574;SDS011;53112;45.602;11.904;2022-11-15T04:53:05;23.00;;;15.80;;
62574;SDS011;53112;45.602;11.904;2022-11-15T04:55:31;26.13;;;15.60;;
62574;SDS011;53112;45.602;11.904;2022-11-15T04:57:57;24.17;;;15.40;;
62574;SDS011;53112;45.602;11.904;2022-11-15T05:00:24;23.63;;;15.50;;
62574;SDS011;53112;45.602;11.904;2022-11-15T05:02:51;23.40;;;15.48;;
62574;SDS011;53112;45.602;11.904;2022-11-15T05:05:36;24.10;;;15.55;;
62574;SDS011;53112;45.602;11.904;2022-11-15T05:08:02;23.40;;;15.15;;
62574;SDS011;53112;45.602;11.904;2022-11-15T05:10:29;21.08;;;14.40;;
62574;SDS011;53112;45.602;11.904;2022-11-15T05:12:55;22.45;;;14.88;;
62574;SDS011;53112;45.602;11.904;2022-11-15T05:15:21;19.15;;;13.75;;
62574;SDS011;53112;45.602;11.904;2022-11-15T05:17:47;19.65;;;13.45;;
62574;SDS011;53112;45.602;11.904;2022-11-15T05:20:13;21.63;;;14.60;;
62574;SDS011;53112;45.602;11.904;2022-11-15T05:22:39;20.80;;;13.82;;
62574;SDS011;53112;45.602;11.904;2022-11-15T05:25:05;19.48;;;13.50;;
62574;SDS011;53112;45.602;11.904;2022-11-15T05:27:32;18.70;;;13.00;;
62574;SDS011;53112;45.602;11.904;2022-11-15T05:29:59;17.23;;;11.88;;
62574;SDS011;53112;45.602;11.904;2022-11-15T05:32:24;16.40;;;11.82;;
62574;SDS011;53112;45.602;11.904;2022-11-15T05:34:50;17.50;;;12.45;;
62574;SDS011;53112;45.602;11.904;2022-11-15T05:37:17;16.90;;;11.95;;
62574;SDS011;53112;45.602;11.904;2022-11-15T05:39:43;17.33;;;12.00;;
62574;SDS011;53112;45.602;11.904;2022-11-15T05:42:09;17.33;;;12.10;;
62574;SDS011;53112;45.602;11.904;2022-11-15T05:44:41;19.63;;;13.27;;
62574;SDS011;53112;45.602;11.904;2022-11-15T05:47:12;18.67;;;12.33;;
62574;SDS011;53112;45.602;11.904;2022-11-15T05:49:45;17.48;;;12.02;;
62574;SDS011;53112;45.602;11.904;2022-11-15T05:52:14;17.45;;;12.35;;
62574;SDS011;53112;45.602;11.904;2022-11-15T05:54:43;17.10;;;12.43;;
62574;SDS011;53112;45.602;11.904;2022-11-15T05:57:09;17.10;;;12.13;;
62574;SDS011;53112;45.602;11.904;2022-11-15T05:59:35;16.55;;;11.25;;
62574;SDS011;53112;45.602;11.904;2022-11-15T06:02:02;16.48;;;11.43;;
62574;SDS011;53112;45.602;11.904;2022-11-15T06:04:28;15.80;;;10.75;;
62574;SDS011;53112;45.602;11.904;2022-11-15T06:06:54;15.82;;;11.48;;
62574;SDS011;53112;45.602;11.904;2022-11-15T06:09:20;16.75;;;11.40;;
62574;SDS011;53112;45.602;11.904;2022-11-15T06:11:45;16.67;;;11.35;;
62574;SDS011;53112;45.602;11.904;2022-11-15T06:14:12;16.23;;;11.45;;
62574;SDS011;53112;45.602;11.904;2022-11-15T06:16:38;17.90;;;12.32;;
62574;SDS011;53112;45.602;11.904;2022-11-15T06:19:05;17.35;;;12.18;;
62574;SDS011;53112;45.602;11.904;2022-11-15T06:21:32;17.08;;;12.40;;
62574;SDS011;53112;45.602;11.904;2022-11-15T06:23:58;19.73;;;13.90;;
62574;SDS011;53112;45.602;11.904;2022-11-15T06:26:24;20.90;;;14.43;;
62574;SDS011;53112;45.602;11.904;2022-11-15T06:28:50;18.55;;;13.32;;
62574;SDS011;53112;45.602;11.904;2022-11-15T06:31:15;19.45;;;13.13;;
62574;SDS011;53112;45.602;11.904;2022-11-15T06:33:41;18.80;;;13.05;;
62574;SDS011;53112;45.602;11.904;2022-11-15T06:36:08;19.60;;;13.90;;
62574;SDS011;53112;45.602;11.904;2022-11-15T06:38:38;22.42;;;14.38;;
62574;SDS011;53112;45.602;11.904;2022-11-15T06:41:05;21.08;;;14.25;;
62574;SDS011;53112;45.602;11.904;2022-11-15T06:43:33;21.15;;;13.23;;
62574;SDS011;53112;45.602;11.904;2022-11-15T06:46:00;20.63;;;14.05;;
62574;SDS011;53112;45.602;11.904;2022-11-15T06:48:28;19.95;;;13.10;;
62574;SDS011;53112;45.602;11.904;2022-11-15T06:50:56;20.85;;;13.52;;
62574;SDS011;53112;45.602;11.904;2022-11-15T06:53:24;19.15;;;13.77;;
62574;SDS011;53112;45.602;11.904;2022-11-15T06:55:50;20.98;;;13.68;;
62574;SDS011;53112;45.602;11.904;2022-11-15T06:58:16;18.58;;;13.18;;
62574;SDS011;53112;45.602;11.904;2022-11-15T07:00:42;22.55;;;14.35;;
62574;SDS011;53112;45.602;11.904;2022-11-15T07:03:09;21.45;;;14.20;;
62574;SDS011;53112;45.602;11.904;2022-11-15T07:05:36;22.45;;;14.77;;
62574;SDS011;53112;45.602;11.904;2022-11-15T07:08:02;22.45;;;13.95;;
62574;SDS011;53112;45.602;11.904;2022-11-15T07:10:28;20.80;;;13.45;;
62574;SDS011;53112;45.602;11.904;2022-11-15T07:12:54;22.75;;;14.35;;
62574;SDS011;53112;45.602;11.904;2022-11-15T07:15:22;20.13;;;14.38;;
62574;SDS011;53112;45.602;11.904;2022-11-15T07:17:49;20.98;;;13.45;;
62574;SDS011;53112;45.602;11.904;2022-11-15T07:20:16;21.08;;;13.35;;
62574;SDS011;53112;45.602;11.904;2022-11-15T07:22:43;20.10;;;14.00;;
62574;SDS011;53112;45.602;11.904;2022-11-15T07:25:10;21.77;;;14.55;;
62574;SDS011;53112;45.602;11.904;2022-11-15T07:27:37;21.63;;;13.73;;
62574;SDS011;53112;45.602;11.904;2022-11-15T07:30:03;21.75;;;14.18;;
62574;SDS011;53112;45.602;11.904;2022-11-15T07:32:30;22.05;;;13.73;;
62574;SDS011;53112;45.602;11.904;2022-11-15T07:34:56;20.80;;;13.32;;
62574;SDS011;53112;45.602;11.904;2022-11-15T07:37:22;20.45;;;13.57;;
62574;SDS011;53112;45.602;11.904;2022-11-15T07:39:48;20.42;;;12.73;;
62574;SDS011;53112;45.602;11.904;2022-11-15T07:42:14;21.48;;;13.82;;
62574;SDS011;53112;45.602;11.904;2022-11-15T07:44:58;19.95;;;13.60;;
62574;SDS011;53112;45.602;11.904;2022-11-15T07:47:24;22.00;;;13.52;;
62574;SDS011;53112;45.602;11.904;2022-11-15T07:49:50;19.20;;;13.02;;
62574;SDS011;53112;45.602;11.904;2022-11-15T07:52:17;20.27;;;13.20;;
62574;SDS011;53112;45.602;11.904;2022-11-15T07:54:43;21.38;;;13.80;;
62574;SDS011;53112;45.602;11.904;2022-11-15T07:57:08;20.63;;;13.30;;
62574;SDS011;53112;45.602;11.904;2022-11-15T07:59:35;27.98;;;20.23;;
62574;SDS011;53112;45.602;11.904;2022-11-15T08:02:01;19.38;;;13.55;;
62574;SDS011;53112;45.602;11.904;2022-11-15T08:04:27;25.88;;;16.92;;
62574;SDS011;53112;45.602;11.904;2022-11-15T08:06:53;23.17;;;15.45;;
62574;SDS011;53112;45.602;11.904;2022-11-15T08:09:19;22.85;;;14.43;;
62574;SDS011;53112;45.602;11.904;2022-11-15T08:11:45;21.10;;;14.02;;
62574;SDS011;53112;45.602;11.904;2022-11-15T08:14:11;22.38;;;13.20;;
62574;SDS011;53112;45.602;11.904;2022-11-15T08:16:38;18.92;;;12.98;;
62574;SDS011;53112;45.602;11.904;2022-11-15T08:19:04;19.98;;;13.10;;
62574;SDS011;53112;45.602;11.904;2022-11-15T08:21:29;18.20;;;12.98;;
62574;SDS011;53112;45.602;11.904;2022-11-15T08:23:55;17.58;;;11.18;;
62574;SDS011;53112;45.602;11.904;2022-11-15T08:26:21;18.48;;;12.30;;
62574;SDS011;53112;45.602;11.904;2022-11-15T08:28:47;19.02;;;12.23;;
62574;SDS011;53112;45.602;11.904;2022-11-15T08:31:14;18.65;;;12.85;;
62574;SDS011;53112;45.602;11.904;2022-11-15T08:33:42;19.85;;;12.80;;
62574;SDS011;53112;45.602;11.904;2022-11-15T08:36:11;21.48;;;13.30;;
62574;SDS011;53112;45.602;11.904;2022-11-15T08:38:40;19.27;;;12.57;;
62574;SDS011;53112;45.602;11.904;2022-11-15T08:41:06;18.50;;;12.15;;
62574;SDS011;53112;45.602;11.904;2022-11-15T08:43:32;19.10;;;13.02;;
62574;SDS011;53112;45.602;11.904;2022-11-15T08:45:58;19.83;;;12.73;;
62574;SDS011;53112;45.602;11.904;2022-11-15T08:48:24;17.88;;;12.75;;
62574;SDS011;53112;45.602;11.904;2022-11-15T08:50:53;18.77;;;12.48;;
62574;SDS011;53112;45.602;11.904;2022-11-15T08:53:20;19.92;;;12.65;;
62574;SDS011;53112;45.602;11.904;2022-11-15T08:55:46;16.40;;;11.32;;
62574;SDS011;53112;45.602;11.904;2022-11-15T08:58:12;17.90;;;11.63;;
62574;SDS011;53112;45.602;11.904;2022-11-15T09:00:38;20.48;;;12.35;;
62574;SDS011;53112;45.602;11.904;2022-11-15T09:03:05;16.73;;;11.80;;
62574;SDS011;53112;45.602;11.904;2022-11-15T09:05:31;18.33;;;12.15;;
62574;SDS011;53112;45.602;11.904;2022-11-15T09:07:58;18.27;;;12.50;;
62574;SDS011;53112;45.602;11.904;2022-11-15T09:10:24;22.30;;;14.07;;
62574;SDS011;53112;45.602;11.904;2022-11-15T09:12:50;18.30;;;12.15;;
62574;SDS011;53112;45.602;11.904;2022-11-15T09:15:16;18.70;;;12.80;;
62574;SDS011;53112;45.602;11.904;2022-11-15T09:17:42;20.85;;;14.27;;
62574;SDS011;53112;45.602;11.904;2022-11-15T09:20:08;30.67;;;20.20;;
62574;SDS011;53112;45.602;11.904;2022-11-15T09:22:35;21.33;;;13.65;;
62574;SDS011;53112;45.602;11.904;2022-11-15T09:25:02;19.90;;;12.80;;
62574;SDS011;53112;45.602;11.904;2022-11-15T09:27:29;19.58;;;13.30;;
62574;SDS011;53112;45.602;11.904;2022-11-15T09:29:55;17.40;;;12.43;;
62574;SDS011;53112;45.602;11.904;2022-11-15T09:32:21;17.00;;;12.35;;
62574;SDS011;53112;45.602;11.904;2022-11-15T09:34:50;17.33;;;11.73;;
62574;SDS011;53112;45.602;11.904;2022-11-15T09:37:16;16.58;;;11.00;;
62574;SDS011;53112;45.602;11.904;2022-11-15T09:39:42;16.27;;;11.02;;
62574;SDS011;53112;45.602;11.904;2022-11-15T09:50:28;16.00;;;11.15;;
62574;SDS011;53112;45.602;11.904;2022-11-15T09:56:01;15.88;;;11.25;;
62574;SDS011;53112;45.602;11.904;2022-11-15T09:58:33;17.13;;;12.27;;
62574;SDS011;53112;45.602;11.904;2022-11-15T10:04:09;16.98;;;11.90;;
62574;SDS011;53112;45.602;11.904;2022-11-15T10:06:36;19.10;;;12.23;;
62574;SDS011;53112;45.602;11.904;2022-11-15T10:09:16;18.05;;;11.85;;
62574;SDS011;53112;45.602;11.904;2022-11-15T10:11:49;16.30;;;11.00;;
62574;SDS011;53112;45.602;11.904;2022-11-15T10:14:19;18.48;;;12.48;;
62574;SDS011;53112;45.602;11.904;2022-11-15T10:22:20;17.13;;;11.18;;
62574;SDS011;53112;45.602;11.904;2022-11-15T10:25:15;18.05;;;11.80;;
62574;SDS011;53112;45.602;11.904;2022-11-15T10:27:44;14.85;;;11.23;;
62574;SDS011;53112;45.602;11.904;2022-11-15T10:30:31;16.63;;;11.30;;
62574;SDS011;53112;45.602;11.904;2022-11-15T10:40:22;16.63;;;11.35;;
62574;SDS011;53112;45.602;11.904;2022-11-15T10:43:03;18.13;;;12.15;;
62574;SDS011;53112;45.602;11.904;2022-11-15T10:45:44;18.35;;;12.88;;
62574;SDS011;53112;45.602;11.904;2022-11-15T10:50:37;19.45;;;14.07;;
62574;SDS011;53112;45.602;11.904;2022-11-15T10:53:04;21.77;;;14.23;;
62574;SDS011;53112;45.602;11.904;2022-11-15T10:55:46;18.65;;;13.55;;
62574;SDS011;53112;45.602;11.904;2022-11-15T10:58:21;20.85;;;13.82;;
62574;SDS011;53112;45.602;11.904;2022-11-15T11:00:48;17.55;;;12.88;;
62574;SDS011;53112;45.602;11.904;2022-11-15T11:03:29;19.67;;;13.10;;
62574;SDS011;53112;45.602;11.904;2022-11-15T11:06:12;17.83;;;12.15;;
62574;SDS011;53112;45.602;11.904;2022-11-15T11:08:59;17.13;;;11.88;;
62574;SDS011;53112;45.602;11.904;2022-11-15T11:14:12;16.77;;;11.90;;
62574;SDS011;53112;45.602;11.904;2022-11-15T11:17:05;17.52;;;11.88;;
62574;SDS011;53112;45.602;11.904;2022-11-15T11:19:48;17.83;;;11.77;;
62574;SDS011;53112;45.602;11.904;2022-11-15T11:22:37;15.30;;;11.00;;
62574;SDS011;53112;45.602;11.904;2022-11-15T11:30:34;16.95;;;11.65;;
62574;SDS011;53112;45.602;11.904;2022-11-15T11:44:04;16.58;;;10.55;;
62574;SDS011;53112;45.602;11.904;2022-11-15T11:49:20;18.23;;;12.30;;
62574;SDS011;53112;45.602;11.904;2022-11-15T11:52:03;16.15;;;11.00;;
62574;SDS011;53112;45.602;11.904;2022-11-15T11:57:43;21.90;;;11.38;;
62574;SDS011;53112;45.602;11.904;2022-11-15T12:00:17;20.15;;;13.32;;
62574;SDS011;53112;45.602;11.904;2022-11-15T12:03:00;17.15;;;12.48;;
62574;SDS011;53112;45.602;11.904;2022-11-15T12:05:32;16.90;;;11.43;;
62574;SDS011;53112;45.602;11.904;2022-11-15T12:10:48;21.15;;;13.27;;
62574;SDS011;53112;45.602;11.904;2022-11-15T12:13:46;18.65;;;13.13;;
62574;SDS011;53112;45.602;11.904;2022-11-15T12:16:22;18.58;;;12.35;;
62574;SDS011;53112;45.602;11.904;2022-11-15T12:18:53;18.90;;;13.35;;
62574;SDS011;53112;45.602;11.904;2022-11-15T12:24:08;17.20;;;12.13;;
62574;SDS011;53112;45.602;11.904;2022-11-15T12:29:49;20.23;;;13.27;;
62574;SDS011;53112;45.602;11.904;2022-11-15T12:34:56;19.65;;;13.60;;
62574;SDS011;53112;45.602;11.904;2022-11-15T12:40:18;21.00;;;12.90;;
62574;SDS011;53112;45.602;11.904;2022-11-15T12:46:10;19.25;;;13.23;;
62574;SDS011;53112;45.602;11.904;2022-11-15T12:51:04;18.95;;;12.52;;
62574;SDS011;53112;45.602;11.904;2022-11-15T12:53:31;17.70;;;11.98;;
62574;SDS011;53112;45.602;11.904;2022-11-15T12:58:56;18.95;;;13.25;;
62574;SDS011;53112;45.602;11.904;2022-11-15T13:06:40;19.50;;;13.70;;
62574;SDS011;53112;45.602;11.904;2022-11-15T13:12:03;20.23;;;12.93;;
62574;SDS011;53112;45.602;11.904;2022-11-15T13:22:39;20.27;;;11.85;;
62574;SDS011;53112;45.602;11.904;2022-11-15T13:33:56;19.83;;;12.55;;
62574;SDS011;53112;45.602;11.904;2022-11-15T13:36:29;19.65;;;13.10;;
62574;SDS011;53112;45.602;11.904;2022-11-15T13:39:00;18.20;;;13.05;;
62574;SDS011;53112;45.602;11.904;2022-11-15T13:41:28;20.63;;;13.13;;
62574;SDS011;53112;45.602;11.904;2022-11-15T13:43:56;18.80;;;12.57;;
62574;SDS011;53112;45.602;11.904;2022-11-15T13:46:32;18.38;;;13.18;;
62574;SDS011;53112;45.602;11.904;2022-11-15T13:49:00;17.88;;;12.65;;
62574;SDS011;53112;45.602;11.904;2022-11-15T13:51:54;18.00;;;11.07;;
62574;SDS011;53112;45.602;11.904;2022-11-15T13:54:23;17.60;;;11.50;;
62574;SDS011;53112;45.602;11.904;2022-11-15T13:57:11;16.65;;;11.30;;
62574;SDS011;53112;45.602;11.904;2022-11-15T14:02:18;15.85;;;10.38;;
62574;SDS011;53112;45.602;11.904;2022-11-15T14:07:24;15.63;;;10.45;;
62574;SDS011;53112;45.602;11.904;2022-11-15T14:09:52;15.80;;;10.63;;
62574;SDS011;53112;45.602;11.904;2022-11-15T14:15:45;15.90;;;10.27;;
62574;SDS011;53112;45.602;11.904;2022-11-15T14:17:54;15.10;;;10.70;;
62574;SDS011;53112;45.602;11.904;2022-11-15T14:20:26;15.85;;;11.05;;
62574;SDS011;53112;45.602;11.904;2022-11-15T14:22:58;15.85;;;11.02;;
62574;SDS011;53112;45.602;11.904;2022-11-15T14:25:27;15.13;;;10.48;;
62574;SDS011;53112;45.602;11.904;2022-11-15T14:30:43;13.57;;;9.27;;
62574;SDS011;53112;45.602;11.904;2022-11-15T14:36:21;15.60;;;10.32;;
62574;SDS011;53112;45.602;11.904;2022-11-15T14:38:47;13.63;;;9.23;;
62574;SDS011;53112;45.602;11.904;2022-11-15T14:41:23;13.52;;;9.63;;
62574;SDS011;53112;45.602;11.904;2022-11-15T14:43:51;13.27;;;9.07;;
62574;SDS011;53112;45.602;11.904;2022-11-15T14:46:18;14.70;;;10.15;;
62574;SDS011;53112;45.602;11.904;2022-11-15T14:48:45;16.70;;;10.23;;
62574;SDS011;53112;45.602;11.904;2022-11-15T14:51:12;15.13;;;9.50;;
62574;SDS011;53112;45.602;11.904;2022-11-15T14:53:40;13.32;;;9.18;;
62574;SDS011;53112;45.602;11.904;2022-11-15T14:56:06;13.30;;;9.35;;
62574;SDS011;53112;45.602;11.904;2022-11-15T14:58:33;14.18;;;9.45;;
62574;SDS011;53112;45.602;11.904;2022-11-15T15:00:58;14.50;;;8.95;;
62574;SDS011;53112;45.602;11.904;2022-11-15T15:03:24;14.50;;;9.82;;
62574;SDS011;53112;45.602;11.904;2022-11-15T15:05:51;14.32;;;10.00;;
62574;SDS011;53112;45.602;11.904;2022-11-15T15:08:16;15.32;;;9.30;;
62574;SDS011;53112;45.602;11.904;2022-11-15T15:10:43;14.15;;;9.73;;
62574;SDS011;53112;45.602;11.904;2022-11-15T15:13:15;14.38;;;9.65;;
62574;SDS011;53112;45.602;11.904;2022-11-15T15:15:47;15.63;;;10.43;;
62574;SDS011;53112;45.602;11.904;2022-11-15T15:18:14;14.70;;;10.05;;
62574;SDS011;53112;45.602;11.904;2022-11-15T15:20:42;13.18;;;8.75;;
62574;SDS011;53112;45.602;11.904;2022-11-15T15:23:15;12.70;;;8.95;;
62574;SDS011;53112;45.602;11.904;2022-11-15T15:25:43;13.88;;;9.68;;
62574;SDS011;53112;45.602;11.904;2022-11-15T15:28:10;14.80;;;9.88;;
62574;SDS011;53112;45.602;11.904;2022-11-15T15:30:37;14.02;;;9.25;;
62574;SDS011;53112;45.602;11.904;2022-11-15T15:33:03;13.27;;;9.27;;
62574;SDS011;53112;45.602;11.904;2022-11-15T15:35:29;15.63;;;9.02;;
62574;SDS011;53112;45.602;11.904;2022-11-15T15:37:57;15.10;;;9.85;;
62574;SDS011;53112;45.602;11.904;2022-11-15T15:40:24;16.83;;;10.32;;
62574;SDS011;53112;45.602;11.904;2022-11-15T15:42:52;17.95;;;11.23;;
62574;SDS011;53112;45.602;11.904;2022-11-15T15:45:18;17.67;;;12.45;;
62574;SDS011;53112;45.602;11.904;2022-11-15T15:47:44;16.15;;;11.73;;
62574;SDS011;53112;45.602;11.904;2022-11-15T15:52:58;16.08;;;11.00;;
62574;SDS011;53112;45.602;11.904;2022-11-15T15:55:26;18.17;;;13.15;;
62574;SDS011;53112;45.602;11.904;2022-11-15T15:57:53;17.88;;;12.50;;
62574;SDS011;53112;45.602;11.904;2022-11-15T16:00:20;19.65;;;13.45;;
62574;SDS011;53112;45.602;11.904;2022-11-15T16:02:51;19.25;;;12.65;;
62574;SDS011;53112;45.602;11.904;2022-11-15T16:05:18;18.50;;;11.75;;
62574;SDS011;53112;45.602;11.904;2022-11-15T16:07:44;17.58;;;12.18;;
62574;SDS011;53112;45.602;11.904;2022-11-15T16:10:31;21.00;;;13.25;;
62574;SDS011;53112;45.602;11.904;2022-11-15T16:12:59;16.83;;;12.25;;
62574;SDS011;53112;45.602;11.904;2022-11-15T16:15:26;20.75;;;12.98;;
62574;SDS011;53112;45.602;11.904;2022-11-15T16:17:58;19.35;;;12.50;;
62574;SDS011;53112;45.602;11.904;2022-11-15T16:20:32;16.08;;;11.18;;
62574;SDS011;53112;45.602;11.904;2022-11-15T16:23:08;16.52;;;11.95;;
62574;SDS011;53112;45.602;11.904;2022-11-15T16:25:45;17.35;;;11.23;;
62574;SDS011;53112;45.602;11.904;2022-11-15T16:28:25;17.77;;;11.70;;
62574;SDS011;53112;45.602;11.904;2022-11-15T16:31:02;17.35;;;12.18;;
62574;SDS011;53112;45.602;11.904;2022-11-15T16:33:30;18.35;;;11.48;;
62574;SDS011;53112;45.602;11.904;2022-11-15T16:35:57;16.33;;;11.07;;
62574;SDS011;53112;45.602;11.904;2022-11-15T16:38:23;17.50;;;11.75;;
62574;SDS011;53112;45.602;11.904;2022-11-15T16:40:48;17.17;;;11.57;;
62574;SDS011;53112;45.602;11.904;2022-11-15T16:43:15;20.13;;;13.27;;
62574;SDS011;53112;45.602;11.904;2022-11-15T16:45:41;18.45;;;12.90;;
62574;SDS011;53112;45.602;11.904;2022-11-15T16:48:09;20.50;;;13.23;;
62574;SDS011;53112;45.602;11.904;2022-11-15T16:50:49;22.23;;;15.25;;
62574;SDS011;53112;45.602;11.904;2022-11-15T16:53:19;25.58;;;17.08;;
62574;SDS011;53112;45.602;11.904;2022-11-15T16:55:44;24.67;;;16.40;;
62574;SDS011;53112;45.602;11.904;2022-11-15T16:58:10;27.30;;;17.30;;
62574;SDS011;53112;45.602;11.904;2022-11-15T17:00:36;28.13;;;18.40;;
62574;SDS011;53112;45.602;11.904;2022-11-15T17:03:02;26.48;;;17.80;;